Main page
METAR-TAF:

METAR-TAF

Airports :

London Southend Airport

London-Southend, England

latitude: 51-34N, longitude: 000-42E, elevation: 15 m

Current weather observation

The report was made 34 minutes ago, at 05:20 UTC
Calm wind
Temperature 2°C
Humidity 93%
Pressure 1026 hPa
Visibility 10 km or more
Few clouds at a height of 1500 ft
Broken clouds at a height of 2600 ft

METAR: EGMC 110520Z 00000KT 9999 FEW015 BKN026 02/01 Q1026

Time: 05:54 (05:54 UTC)

Forecast

The report was made 50 minutes ago, at 05:04 UTC
Forecast valid from 11 at 06 UTC to 11 at 15 UTC
Wind 3 kt from variable directions
Visibility: 8000 m
Few clouds at a height of 3500 ft
Temporary
from 11 at 06 UTC to 11 at 11 UTC
Visibility: 3000 m
mist
Probability 30%
from 11 at 06 UTC to 11 at 10 UTC
Visibility: 0300 m
fog
Becoming
from 11 at 11 UTC to 11 at 14 UTC
Visibility 10 km or more

TAF: EGMC 110504Z 1106/1115 VRB03KT 8000 FEW035 TEMPO 1106/1111 3000 BR PROB30 1106/1110 0300 FG VV/// BECMG 1111/1114 9999

Weather observations and forecasts of more than 4000 airports (METAR and TAF reports).

The available stations are represented by yellow and red dots on the map.

Hover mouse over dot to see the name of the station.

Then click to see weather observations and forecasts.

To change the map : click on the green buttons with a black cross to zoom in, on the green button with a dash to zoom out, or on the green arrows for adjacent maps.


METAR-TAF: